Terminal Aerodrome Forecast
Issued by NWS Louisville, KY

Home | Current Version | Previous Version | Text Only | Print | Product List | Glossary On
Versions: 1 2 3 4 5 6 7 8 9 10 11 12 13 14 15 16 17
523
FTUS43 KLMK 261148
TAFSDF
TAF
KSDF 261148Z 2612/2718 17010KT P6SM VCSH SCT015 BKN050
      TEMPO 2613/2616 BKN015
     FM261800 22012G18KT P6SM BKN025
     FM262100 21011KT P6SM BKN035
     FM270000 19005KT P6SM BKN050=

USA.gov is the U.S. government's official web portal to all federal, state and local government web resources and services.